Time;durP1;ratioP1;P1;durP2;ratioP2;P2;SDS_P1;SDS_P2;PMS_P1;PMS_P2;Temp;Humidity;BMP_temperature;BMP_pressure;BME280_temperature;BME280_humidity;BME280_pressure;Samples;Min_cycle;Max_cycle;Signal;HPM_P1;HPM_P2
2023/05/31 00:00:37;;;;;;;8.50;3.53;;;;;;;15.27;66.68;102349.16;4954745;28;20047;-44
2023/05/31 00:03:04;;;;;;;10.80;3.78;;;;;;;15.24;66.95;102343.09;4953963;29;20055;-43
2023/05/31 00:05:31;;;;;;;12.20;3.28;;;;;;;15.24;66.83;102340.31;4954934;29;20058;-46
2023/05/31 00:07:58;;;;;;;9.40;3.78;;;;;;;15.25;66.89;102341.09;4953570;29;20039;-44
2023/05/31 00:10:25;;;;;;;11.77;2.78;;;;;;;15.23;66.73;102335.88;4953469;29;20039;-44
2023/05/31 00:12:52;;;;;;;15.98;3.88;;;;;;;15.21;66.86;102340.97;4948366;29;20051;-45
2023/05/31 00:15:18;;;;;;;10.20;3.75;;;;;;;15.18;67.20;102335.25;4954680;29;20103;-43
2023/05/31 00:17:45;;;;;;;13.85;4.22;;;;;;;15.15;67.18;102336.72;4954720;29;20039;-48
2023/05/31 00:20:16;;;;;;;11.23;4.93;;;;;;;15.11;67.54;102330.22;4953493;29;20529;-44
2023/05/31 00:22:43;;;;;;;7.55;3.47;;;;;;;15.09;67.50;102323.34;4954413;28;20047;-44
2023/05/31 00:25:10;;;;;;;11.98;3.35;;;;;;;15.05;67.65;102320.41;4954110;29;20172;-44
2023/05/31 00:27:37;;;;;;;8.45;3.70;;;;;;;15.03;67.71;102317.13;4954651;29;20039;-44
2023/05/31 00:30:04;;;;;;;10.63;3.30;;;;;;;15.02;67.68;102328.59;4954597;29;20110;-47
2023/05/31 00:32:31;;;;;;;10.18;3.58;;;;;;;15.00;68.04;102323.38;4954313;29;20086;-44
2023/05/31 00:34:58;;;;;;;11.82;4.35;;;;;;;15.02;67.94;102323.84;4954363;28;20055;-45
2023/05/31 00:37:25;;;;;;;14.13;3.15;;;;;;;15.01;67.73;102322.22;4952472;29;20457;-44
2023/05/31 00:39:51;;;;;;;7.63;3.53;;;;;;;15.01;67.83;102322.22;4954318;29;20501;-44
2023/05/31 00:42:18;;;;;;;11.95;3.40;;;;;;;15.00;67.80;102323.38;4952922;28;20139;-44
2023/05/31 00:44:45;;;;;;;14.65;3.60;;;;;;;14.97;67.91;102323.22;4953045;29;20047;-43
2023/05/31 00:47:12;;;;;;;10.57;3.65;;;;;;;14.88;68.09;102326.06;4952395;29;20105;-48
2023/05/31 00:49:39;;;;;;;8.82;3.10;;;;;;;14.84;68.12;102327.91;4954364;29;20055;-43
2023/05/31 00:52:07;;;;;;;19.50;4.80;;;;;;;14.84;68.30;102319.53;4954024;28;20102;-44
2023/05/31 00:54:33;;;;;;;13.20;3.33;;;;;;;14.82;68.26;102321.03;4952848;29;20046;-46
2023/05/31 00:57:01;;;;;;;16.80;3.38;;;;;;;14.81;68.37;102320.19;4953869;29;20066;-45
2023/05/31 00:59:28;;;;;;;10.13;3.60;;;;;;;14.80;68.30;102321.34;4936565;29;20130;-46
2023/05/31 01:01:57;;;;;;;9.73;3.20;;;;;;;14.78;68.43;102315.28;4953452;29;20107;-44
2023/05/31 01:04:25;;;;;;;11.38;3.63;;;;;;;14.78;68.50;102322.81;4953980;29;20095;-47
2023/05/31 01:06:52;;;;;;;10.55;3.78;;;;;;;14.76;68.45;102317.59;4954099;29;20668;-46
2023/05/31 01:09:19;;;;;;;12.93;3.40;;;;;;;14.72;68.51;102316.63;4953341;28;20174;-46
2023/05/31 01:12:18;;;;;;;8.23;3.03;;;;;;;14.71;68.73;102319.75;4944063;28;20070;-44
2023/05/31 01:15:10;;;;;;;10.38;3.30;;;;;;;14.69;68.52;102311.75;4942170;28;20042;-44
2023/05/31 01:17:46;;;;;;;8.05;2.65;;;;;;;14.67;68.31;102310.44;4944858;28;20135;-45
2023/05/31 01:20:17;;;;;;;9.93;2.75;;;;;;;14.66;68.32;102311.56;4950987;28;20051;-45
2023/05/31 01:23:08;;;;;;;8.63;2.78;;;;;;;14.62;68.63;102315.03;4952524;29;20058;-46
2023/05/31 01:25:38;;;;;;;8.88;3.85;;;;;;;14.58;68.47;102310.47;4943754;29;20079;-43
2023/05/31 01:28:07;;;;;;;6.75;2.90;;;;;;;14.59;68.40;102309.28;4953010;29;20058;-44
2023/05/31 01:30:36;;;;;;;9.52;3.00;;;;;;;14.57;68.35;102309.66;4952448;29;20051;-45
2023/05/31 01:33:12;;;;;;;11.75;2.60;;;;;;;14.58;68.56;102321.63;4952801;29;20190;-44
2023/05/31 01:35:39;;;;;;;11.23;3.30;;;;;;;14.57;68.23;102322.75;4953434;29;20397;-43
2023/05/31 01:38:05;;;;;;;11.60;5.95;;;;;;;14.56;67.86;102318.34;4953255;28;20055;-44
2023/05/31 01:40:34;;;;;;;8.55;3.20;;;;;;;14.54;68.05;102320.63;4953385;29;20047;-47
2023/05/31 01:43:04;;;;;;;7.55;3.08;;;;;;;14.52;67.76;102334.09;4953331;29;20059;-46
2023/05/31 01:45:33;;;;;;;7.00;2.35;;;;;;;14.52;67.38;102325.72;4950633;29;20516;-43
2023/05/31 01:48:05;;;;;;;7.15;2.30;;;;;;;14.54;67.15;102327.03;4953313;29;20050;-43
2023/05/31 01:50:36;;;;;;;10.10;3.50;;;;;;;14.52;66.87;102322.94;4953038;29;20047;-43
2023/05/31 01:53:04;;;;;;;7.45;2.50;;;;;;;14.50;66.85;102322.47;4953531;29;20047;-43
2023/05/31 01:55:31;;;;;;;15.48;3.35;;;;;;;14.50;66.62;102328.03;4952960;28;20055;-46
2023/05/31 01:58:00;;;;;;;7.78;2.47;;;;;;;14.49;66.50;102329.19;4952876;29;20490;-44
2023/05/31 02:00:28;;;;;;;10.60;3.45;;;;;;;14.42;66.45;102328.88;4952179;29;20039;-44
2023/05/31 02:02:55;;;;;;;7.88;2.90;;;;;;;14.37;66.44;102313.19;4952447;29;20051;-44
2023/05/31 02:05:22;;;;;;;8.57;2.67;;;;;;;14.34;66.28;102327.78;4952740;29;20043;-46
2023/05/31 02:07:48;;;;;;;4.38;2.20;;;;;;;14.32;66.25;102323.69;4953421;29;20485;-47
2023/05/31 02:10:16;;;;;;;8.88;3.38;;;;;;;14.30;66.15;102325.94;4952133;29;20039;-50
2023/05/31 02:12:43;;;;;;;10.10;3.42;;;;;;;14.26;66.15;102325.78;4949748;29;20488;-43
2023/05/31 02:15:12;;;;;;;7.75;2.95;;;;;;;14.23;66.38;102314.47;4952832;29;20098;-46
2023/05/31 02:17:42;;;;;;;12.18;3.15;;;;;;;14.23;66.48;102320.88;4947916;28;20486;-44
2023/05/31 02:20:12;;;;;;;8.18;3.58;;;;;;;14.21;66.50;102322.38;4947083;28;20055;-44
2023/05/31 02:22:41;;;;;;;6.13;2.63;;;;;;;14.19;66.45;102324.66;4935475;29;20381;-43
2023/05/31 02:25:13;;;;;;;11.18;3.30;;;;;;;14.17;66.69;102321.38;4953381;28;20043;-44
2023/05/31 02:27:41;;;;;;;7.00;4.07;;;;;;;14.11;67.02;102317.94;4958204;28;20102;-44
2023/05/31 02:30:09;;;;;;;10.98;3.35;;;;;;;14.11;66.93;102328.28;4952886;29;20054;-51
2023/05/31 02:32:37;;;;;;;6.40;3.38;;;;;;;14.09;66.94;102309.09;4952310;29;20057;-48
2023/05/31 02:35:06;;;;;;;9.55;3.17;;;;;;;14.07;67.20;102321.72;4939226;28;20056;-43
2023/05/31 02:37:35;;;;;;;14.05;3.72;;;;;;;14.07;67.43;102313.38;4950243;28;20046;-44
2023/05/31 02:40:07;;;;;;;10.10;3.92;;;;;;;14.06;67.65;102312.53;4934943;29;20441;-46
2023/05/31 02:42:42;;;;;;;4.00;2.83;;;;;;;14.07;67.58;102321.72;4950410;29;20036;-44
2023/05/31 02:45:10;;;;;;;8.77;3.25;;;;;;;14.04;67.85;102317.63;4952173;29;20051;-44
2023/05/31 02:47:39;;;;;;;4.78;2.85;;;;;;;14.01;67.94;102319.13;4951999;29;20054;-44
2023/05/31 02:50:08;;;;;;;7.22;3.30;;;;;;;13.97;68.27;102318.16;4951873;29;20058;-43
2023/05/31 02:52:38;;;;;;;13.02;4.13;;;;;;;13.95;68.24;102312.06;4933688;29;20149;-44
2023/05/31 02:55:05;;;;;;;8.20;3.50;;;;;;;13.93;68.35;102313.56;4951616;29;20043;-44
2023/05/31 02:57:32;;;;;;;10.75;3.55;;;;;;;13.90;68.43;102317.00;4951615;29;20458;-44
2023/05/31 03:00:08;;;;;;;6.68;3.30;;;;;;;13.84;68.65;102312.75;4951988;29;20440;-46
2023/05/31 03:02:35;;;;;;;8.95;3.53;;;;;;;13.78;68.60;102306.53;4981089;23;20067;-44
2023/05/31 03:05:03;;;;;;;8.60;4.13;;;;;;;13.77;68.99;102316.03;4940080;28;20051;-43
2023/05/31 03:07:30;;;;;;;9.25;3.38;;;;;;;13.75;68.93;102318.34;4951820;28;20064;-46
2023/05/31 03:10:00;;;;;;;9.73;3.13;;;;;;;13.71;69.20;102325.72;4948812;29;20043;-49
2023/05/31 03:12:27;;;;;;;9.02;3.75;;;;;;;13.70;69.10;102315.72;4950319;29;20039;-44
2023/05/31 03:14:53;;;;;;;7.00;2.97;;;;;;;13.67;69.33;102327.50;4949804;29;20063;-43
2023/05/31 03:17:20;;;;;;;6.32;2.80;;;;;;;13.62;69.44;102322.09;4949049;29;20129;-44
2023/05/31 03:19:48;;;;;;;7.35;3.58;;;;;;;13.56;69.78;102325.38;4949333;29;20043;-50
2023/05/31 03:22:16;;;;;;;9.52;2.90;;;;;;;13.56;69.71;102323.41;4948599;29;20047;-43
2023/05/31 03:24:44;;;;;;;11.68;3.28;;;;;;;13.52;69.84;102328.00;4931442;29;20107;-44
2023/05/31 03:27:11;;;;;;;12.43;3.42;;;;;;;13.51;69.74;102329.13;4943125;29;20147;-43
2023/05/31 03:29:40;;;;;;;8.38;4.55;;;;;;;13.46;69.99;102334.88;4953360;28;20054;-43
2023/05/31 03:32:07;;;;;;;10.98;3.63;;;;;;;13.43;70.26;102329.94;4951106;28;20043;-43
2023/05/31 03:34:34;;;;;;;4.80;3.20;;;;;;;13.40;70.25;102328.63;4960000;28;20134;-45
2023/05/31 03:37:02;;;;;;;10.05;3.88;;;;;;;13.38;70.52;102328.16;4951508;29;20124;-45
2023/05/31 03:39:28;;;;;;;7.05;3.30;;;;;;;13.37;70.49;102331.25;4951343;29;20047;-44
2023/05/31 03:41:56;;;;;;;9.82;3.88;;;;;;;13.37;70.57;102331.25;4949879;29;20094;-47
2023/05/31 03:44:23;;;;;;;10.27;3.70;;;;;;;13.36;70.73;102329.63;4949678;28;20047;-46
2023/05/31 03:46:50;;;;;;;8.48;3.58;;;;;;;13.35;70.70;102325.19;4951510;29;20047;-45
2023/05/31 03:49:17;;;;;;;11.00;3.70;;;;;;;13.36;70.51;102324.06;4951438;29;20039;-44
2023/05/31 03:51:44;;;;;;;6.72;3.05;;;;;;;13.33;70.76;102330.28;4951204;29;20066;-49
2023/05/31 03:54:10;;;;;;;8.60;3.85;;;;;;;13.30;70.92;102320.63;4950864;29;20565;-44
2023/05/31 03:56:37;;;;;;;8.77;3.63;;;;;;;13.30;70.95;102314.22;4951278;29;20054;-44
2023/05/31 03:59:05;;;;;;;9.23;3.47;;;;;;;13.30;70.91;102314.22;4947397;29;20402;-44
2023/05/31 04:01:33;;;;;;;8.07;3.47;;;;;;;13.32;71.10;102320.28;4944481;28;20043;-44
2023/05/31 04:04:00;;;;;;;6.85;3.58;;;;;;;13.30;71.16;102317.84;4941529;29;20047;-45
2023/05/31 04:06:28;;;;;;;12.40;4.13;;;;;;;13.27;71.28;102310.13;4945534;29;20047;-44
2023/05/31 04:08:55;;;;;;;7.88;3.40;;;;;;;13.25;71.60;102312.44;4948747;29;20043;-44
2023/05/31 04:11:22;;;;;;;10.82;4.43;;;;;;;13.25;71.46;102317.16;4942807;29;20081;-45
2023/05/31 04:13:49;;;;;;;9.23;3.65;;;;;;;13.25;71.68;102317.16;4945962;29;20579;-44
2023/05/31 04:16:16;;;;;;;8.27;3.70;;;;;;;13.24;72.02;102318.28;4945575;29;20039;-44
2023/05/31 04:18:43;;;;;;;14.68;3.83;;;;;;;13.24;72.04;102333.03;4948275;29;20039;-45
2023/05/31 04:21:11;;;;;;;9.13;3.55;;;;;;;13.24;72.13;102319.13;4950885;29;20055;-44
2023/05/31 04:23:38;;;;;;;8.40;3.00;;;;;;;13.23;72.29;102313.91;4945538;29;20082;-47
2023/05/31 04:26:06;;;;;;;10.30;4.38;;;;;;;13.24;72.26;102316.34;4946585;29;20460;-45
2023/05/31 04:28:34;;;;;;;11.50;4.07;;;;;;;13.24;72.44;102316.34;4929185;29;20036;-44
2023/05/31 04:31:01;;;;;;;9.93;3.95;;;;;;;13.28;72.74;102310.97;4943879;28;20053;-44
2023/05/31 04:33:31;;;;;;;10.25;4.30;;;;;;;13.32;72.69;102317.50;4946714;29;20084;-44
2023/05/31 04:35:59;;;;;;;12.20;3.90;;;;;;;13.32;72.85;102314.72;4944865;29;20134;-44
2023/05/31 04:38:27;;;;;;;10.98;3.90;;;;;;;13.33;73.22;102319.13;4948061;29;20490;-45
2023/05/31 04:40:56;;;;;;;10.35;4.53;;;;;;;13.36;73.10;102319.31;4950109;29;20549;-47
2023/05/31 04:43:27;;;;;;;10.95;3.88;;;;;;;13.39;73.38;102317.84;4947699;29;20055;-44
2023/05/31 04:45:55;;;;;;;8.45;3.63;;;;;;;13.38;73.53;102310.63;4949402;28;20066;-44
2023/05/31 04:48:22;;;;;;;7.13;3.72;;;;;;;13.38;73.75;102307.84;4951739;29;20515;-44
2023/05/31 04:50:49;;;;;;;5.82;3.58;;;;;;;13.38;73.88;102316.19;4949644;29;20039;-48
2023/05/31 04:53:16;;;;;;;12.32;3.72;;;;;;;13.38;74.05;102318.97;4951932;29;20504;-44
2023/05/31 04:55:42;;;;;;;9.15;3.33;;;;;;;13.38;74.34;102319.81;4950489;29;20058;-44
2023/05/31 04:58:09;;;;;;;7.07;4.15;;;;;;;13.42;74.57;102317.19;4950920;29;20100;-44
2023/05/31 05:00:37;;;;;;;11.07;4.15;;;;;;;13.45;74.70;102318.50;4952000;28;20103;-45
2023/05/31 05:03:04;;;;;;;17.70;5.70;;;;;;;13.45;74.73;102310.94;4949955;29;20497;-46
2023/05/31 05:05:35;;;;;;;10.53;4.30;;;;;;;13.48;74.81;102310.31;4951979;29;20540;-45
2023/05/31 05:08:02;;;;;;;9.95;4.45;;;;;;;13.50;74.90;102313.59;4950619;29;20392;-45
2023/05/31 05:10:29;;;;;;;11.98;4.20;;;;;;;13.55;75.07;102312.63;4946928;29;20094;-44
2023/05/31 05:12:56;;;;;;;10.77;4.15;;;;;;;13.57;75.13;102316.72;4949646;29;20043;-45
2023/05/31 05:15:23;;;;;;;7.57;3.25;;;;;;;13.57;75.46;102319.50;4948392;29;20073;-44
2023/05/31 05:17:49;;;;;;;12.98;4.43;;;;;;;13.63;75.77;102315.41;4951820;28;20062;-45
2023/05/31 05:20:16;;;;;;;9.55;4.57;;;;;;;13.67;75.53;102313.59;4950895;28;20408;-44
2023/05/31 05:22:51;;;;;;;12.45;3.90;;;;;;;13.71;75.47;102309.03;4947061;29;20126;-48
2023/05/31 05:25:18;;;;;;;11.88;5.15;;;;;;;13.73;75.83;102301.16;4934033;29;20515;-44
2023/05/31 05:27:47;;;;;;;12.20;4.75;;;;;;;13.75;76.03;102309.97;4945917;29;20516;-44
2023/05/31 05:30:14;;;;;;;11.95;4.18;;;;;;;13.78;76.29;102309.31;4946814;28;20047;-44
2023/05/31 05:32:41;;;;;;;9.93;4.18;;;;;;;13.79;76.62;102305.38;4953012;29;20055;-49
2023/05/31 05:35:08;;;;;;;11.13;4.28;;;;;;;13.84;76.86;102301.63;4961777;28;20054;-45
2023/05/31 05:37:35;;;;;;;12.82;4.20;;;;;;;13.86;76.66;102308.50;4953287;29;20461;-44
2023/05/31 05:40:04;;;;;;;14.93;5.13;;;;;;;13.89;76.78;102305.06;4951382;28;20039;-50
2023/05/31 05:42:32;;;;;;;18.70;6.22;;;;;;;13.92;77.27;102307.19;4934742;29;20055;-45
2023/05/31 05:44:59;;;;;;;14.30;4.95;;;;;;;13.95;77.56;102303.72;4953115;28;20061;-45
2023/05/31 05:47:25;;;;;;;13.15;4.32;;;;;;;13.99;77.69;102301.94;4953235;28;20051;-44
2023/05/31 05:49:53;;;;;;;13.73;4.72;;;;;;;14.02;77.92;102304.06;4952916;28;20299;-44
2023/05/31 05:52:20;;;;;;;14.48;5.78;;;;;;;14.06;78.18;102304.19;4953043;29;20043;-44
2023/05/31 05:54:47;;;;;;;10.10;4.68;;;;;;;14.11;78.16;102303.22;4934768;29;20051;-45
2023/05/31 05:57:14;;;;;;;18.90;4.82;;;;;;;14.16;78.50;102303.88;4952741;28;20417;-44
2023/05/31 05:59:42;;;;;;;24.30;7.75;;;;;;;14.22;78.56;102308.09;4944859;28;20153;-46
2023/05/31 06:02:09;;;;;;;13.65;4.60;;;;;;;14.26;78.71;102311.03;4947712;29;20056;-46
2023/05/31 06:04:35;;;;;;;23.77;5.88;;;;;;;14.29;78.76;102307.59;4951464;29;20111;-44
2023/05/31 06:07:03;;;;;;;13.15;5.72;;;;;;;14.31;78.88;102311.72;4945778;29;20047;-44
2023/05/31 06:09:29;;;;;;;12.25;5.00;;;;;;;14.31;79.17;102310.84;4951837;29;20066;-44
2023/05/31 06:11:57;;;;;;;13.55;4.60;;;;;;;14.30;79.34;102312.00;4947170;29;20469;-45
2023/05/31 06:14:24;;;;;;;12.07;5.57;;;;;;;14.32;79.35;102318.09;4946967;29;20230;-46
2023/05/31 06:16:50;;;;;;;15.77;5.35;;;;;;;14.40;79.61;102314.47;4943682;29;20095;-44
2023/05/31 06:19:17;;;;;;;10.40;4.68;;;;;;;14.47;79.67;102320.34;4949621;29;20082;-46
2023/05/31 06:21:44;;;;;;;15.65;5.70;;;;;;;14.54;79.60;102320.63;4943947;29;20136;-51
2023/05/31 06:24:11;;;;;;;14.50;5.43;;;;;;;14.55;79.66;102320.31;4946893;29;20039;-44
2023/05/31 06:26:38;;;;;;;12.77;5.93;;;;;;;14.58;79.81;102318.84;4929397;29;20058;-47
2023/05/31 06:29:05;;;;;;;8.75;5.28;;;;;;;14.63;79.84;102324.22;4949206;29;20557;-48
2023/05/31 06:31:33;;;;;;;11.57;5.63;;;;;;;14.68;79.63;102312.06;4945498;28;20087;-45
2023/05/31 06:34:00;;;;;;;10.77;4.90;;;;;;;14.71;79.85;102322.53;4944548;29;20405;-44
2023/05/31 06:36:27;;;;;;;11.43;4.72;;;;;;;14.72;79.75;102311.03;4951093;29;20047;-45
2023/05/31 06:38:54;;;;;;;14.45;6.38;;;;;;;14.75;79.74;102315.13;4950448;28;20051;-45
2023/05/31 06:41:21;;;;;;;17.27;8.02;;;;;;;14.78;79.80;102312.50;4950637;29;20043;-45
2023/05/31 06:43:48;;;;;;;13.60;5.30;;;;;;;14.86;79.72;102320.00;4952234;29;20439;-47
2023/05/31 06:46:15;;;;;;;8.45;4.43;;;;;;;14.89;79.55;102316.53;4951917;29;20043;-44
2023/05/31 06:48:42;;;;;;;13.13;4.88;;;;;;;14.97;79.51;102304.53;4951917;29;20043;-51
2023/05/31 06:51:09;;;;;;;15.32;5.50;;;;;;;15.06;79.33;102319.22;4950504;29;20480;-46
2023/05/31 06:53:36;;;;;;;16.02;5.45;;;;;;;15.08;79.19;102325.31;4951701;29;20492;-46
2023/05/31 06:56:05;;;;;;;12.52;5.78;;;;;;;15.06;79.17;102324.00;4952288;29;20485;-45
2023/05/31 06:58:32;;;;;;;25.60;6.88;;;;;;;15.14;79.22;102317.56;4952222;29;20044;-48
2023/05/31 07:00:59;;;;;;;12.75;5.18;;;;;;;15.25;79.15;102325.19;4951045;29;20059;-50
2023/05/31 07:03:26;;;;;;;11.35;4.47;;;;;;;15.35;78.83;102312.81;4934196;29;20094;-44
2023/05/31 07:05:53;;;;;;;8.68;4.15;;;;;;;15.43;78.80;102316.69;4951259;28;20054;-44
2023/05/31 07:08:20;;;;;;;9.35;4.57;;;;;;;15.55;78.63;102314.00;4949780;29;20042;-51
2023/05/31 07:10:46;;;;;;;9.50;4.50;;;;;;;15.64;78.46;102314.75;4939965;29;20043;-45
2023/05/31 07:13:14;;;;;;;7.28;4.85;;;;;;;15.64;78.27;102323.13;4935008;29;20051;-44
2023/05/31 07:15:42;;;;;;;11.50;4.43;;;;;;;15.64;78.14;102314.75;4942543;28;20057;-47
2023/05/31 07:18:09;;;;;;;14.35;4.45;;;;;;;15.63;78.52;102313.09;4943411;29;20047;-45
2023/05/31 07:20:36;;;;;;;10.65;4.30;;;;;;;15.71;78.78;102320.59;4943885;29;20047;-46
2023/05/31 07:23:02;;;;;;;11.55;4.60;;;;;;;15.78;78.83;102320.84;4944052;28;20058;-44
2023/05/31 07:25:29;;;;;;;20.25;5.30;;;;;;;15.94;79.46;102329.44;4944990;29;20450;-45
2023/05/31 07:27:56;;;;;;;11.57;4.57;;;;;;;16.07;79.32;102323.53;4946350;29;20130;-47
2023/05/31 07:30:23;;;;;;;14.02;5.07;;;;;;;16.18;79.13;102319.13;4945404;29;20632;-45
2023/05/31 07:32:50;;;;;;;12.77;4.80;;;;;;;16.18;78.90;102319.13;4933087;29;20468;-44
2023/05/31 07:35:17;;;;;;;12.38;4.25;;;;;;;16.31;79.50;102320.78;4951016;29;20147;-45
2023/05/31 07:37:44;;;;;;;15.45;5.05;;;;;;;16.52;79.84;102333.91;4949339;29;20062;-44
2023/05/31 07:40:11;;;;;;;11.02;4.05;;;;;;;16.68;79.99;102326.50;4946603;29;20114;-51
2023/05/31 07:42:38;;;;;;;11.70;4.90;;;;;;;16.84;80.27;102328.22;4945582;29;20497;-48
2023/05/31 07:45:06;;;;;;;12.85;5.30;;;;;;;16.99;79.51;102329.53;4946711;29;20562;-44
2023/05/31 07:47:34;;;;;;;11.05;4.63;;;;;;;17.05;77.73;102333.72;4948478;28;20043;-45
2023/05/31 07:50:01;;;;;;;11.00;4.47;;;;;;;17.25;78.39;102331.94;4950001;28;20055;-41
2023/05/31 07:52:28;;;;;;;15.77;5.15;;;;;;;17.62;77.56;102323.16;4945401;28;20043;-41
2023/05/31 07:54:55;;;;;;;11.45;4.43;;;;;;;18.04;76.13;102328.34;4951326;29;20100;-41
2023/05/31 07:57:22;;;;;;;10.52;4.78;;;;;;;18.14;73.78;102336.22;4947373;29;20099;-42
2023/05/31 07:59:50;;;;;;;12.13;5.13;;;;;;;18.05;72.66;102336.41;4942149;28;20116;-42
2023/05/31 08:02:19;;;;;;;10.50;4.20;;;;;;;18.46;71.95;102335.13;4945292;29;20062;-42
2023/05/31 08:04:46;;;;;;;10.90;4.55;;;;;;;19.23;70.66;102332.66;4947234;29;20501;-43
2023/05/31 08:07:12;;;;;;;9.77;4.60;;;;;;;19.98;68.13;102333.97;4948109;29;20047;-47
2023/05/31 08:09:39;;;;;;;9.77;4.43;;;;;;;20.54;66.72;102339.06;4947641;29;20103;-42
2023/05/31 08:12:07;;;;;;;11.40;4.40;;;;;;;20.56;63.92;102347.94;4947907;29;20446;-45
2023/05/31 08:14:34;;;;;;;10.93;3.78;;;;;;;20.35;62.67;102347.56;4944693;29;20047;-43
2023/05/31 08:17:01;;;;;;;6.43;4.45;;;;;;;20.12;62.17;102349.47;4946402;28;20047;-44
2023/05/31 08:19:28;;;;;;;6.32;3.35;;;;;;;19.71;61.14;102345.41;4951529;29;20126;-48
2023/05/31 08:21:55;;;;;;;7.78;4.07;;;;;;;19.47;60.82;102340.06;4950246;29;20047;-46
2023/05/31 08:24:22;;;;;;;8.63;3.63;;;;;;;19.20;60.53;102336.19;4953697;28;20047;-44
2023/05/31 08:26:50;;;;;;;15.32;4.63;;;;;;;18.91;60.47;102331.91;4954109;28;20074;-46
2023/05/31 08:29:17;;;;;;;9.23;3.80;;;;;;;18.71;60.43;102330.19;4954322;29;20043;-44
2023/05/31 08:31:43;;;;;;;9.40;3.67;;;;;;;18.70;59.79;102335.00;4952626;28;20045;-44
2023/05/31 08:34:11;;;;;;;7.60;2.92;;;;;;;18.66;59.71;102334.09;4953915;28;20039;-44
2023/05/31 08:36:41;;;;;;;10.82;3.33;;;;;;;19.10;60.11;102336.75;4954413;29;20079;-46
2023/05/31 08:39:08;;;;;;;10.80;4.93;;;;;;;19.81;59.26;102340.00;4954542;29;20103;-45
2023/05/31 08:41:45;;;;;;;7.57;3.17;;;;;;;20.36;58.52;102346.38;4954087;28;20046;-45
2023/05/31 08:44:14;;;;;;;7.80;3.25;;;;;;;20.80;56.74;102341.94;4934384;29;20512;-44
2023/05/31 08:46:44;;;;;;;6.75;3.28;;;;;;;21.06;55.82;102338.34;4953011;28;20150;-45
2023/05/31 08:49:15;;;;;;;8.88;4.05;;;;;;;21.41;55.25;102329.63;4953567;28;20134;-44
2023/05/31 08:51:47;;;;;;;11.03;3.60;;;;;;;21.62;54.68;102332.75;4953469;28;20051;-47
2023/05/31 08:54:17;;;;;;;11.52;4.43;;;;;;;21.73;53.60;102331.72;4953567;29;20280;-45
2023/05/31 08:56:45;;;;;;;8.98;3.60;;;;;;;21.45;53.37;102344.56;4953787;29;20469;-47
2023/05/31 08:59:16;;;;;;;12.80;4.68;;;;;;;21.07;53.20;102335.19;4941933;29;20047;-44
2023/05/31 09:01:43;;;;;;;18.75;6.35;;;;;;;20.64;53.35;102344.06;4952859;28;20390;-47
2023/05/31 09:04:11;;;;;;;12.88;4.28;;;;;;;20.68;53.44;102344.94;4953654;29;20051;-48
2023/05/31 09:06:38;;;;;;;8.82;4.20;;;;;;;20.62;53.38;102341.63;4953172;29;20083;-45
2023/05/31 09:09:08;;;;;;;7.22;3.83;;;;;;;20.94;53.02;102352.63;4954179;29;20051;-44
2023/05/31 09:11:45;;;;;;;10.27;4.03;;;;;;;21.04;52.30;102335.91;4953995;29;20091;-44
2023/05/31 09:14:12;;;;;;;12.18;4.45;;;;;;;20.82;52.01;102333.94;4953504;29;20047;-43
2023/05/31 09:16:40;;;;;;;9.60;3.92;;;;;;;20.85;51.93;102338.81;4953674;28;20043;-44
2023/05/31 09:19:07;;;;;;;12.40;4.68;;;;;;;20.57;51.66;102335.50;4953129;29;20505;-44
2023/05/31 09:21:39;;;;;;;9.48;3.75;;;;;;;20.31;52.20;102330.59;4953690;29;20094;-43
2023/05/31 09:24:07;;;;;;;7.95;4.03;;;;;;;20.43;52.85;102324.81;4951065;29;20059;-45
2023/05/31 09:26:34;;;;;;;9.48;4.60;;;;;;;20.34;52.46;102327.03;4954040;28;20047;-45
2023/05/31 09:29:01;;;;;;;7.60;3.95;;;;;;;20.33;52.39;102333.84;4953912;28;20115;-45
2023/05/31 09:31:28;;;;;;;12.68;4.63;;;;;;;20.42;52.85;102330.78;4953546;29;20052;-49
2023/05/31 09:33:55;;;;;;;11.43;4.50;;;;;;;20.36;52.61;102335.91;4952941;28;20089;-44
2023/05/31 09:36:31;;;;;;;18.27;5.03;;;;;;;19.92;52.73;102337.44;4953479;29;20503;-44
2023/05/31 09:39:13;;;;;;;6.13;3.90;;;;;;;19.86;52.82;102336.91;4953486;28;20074;-43
2023/05/31 09:41:40;;;;;;;8.07;4.38;;;;;;;20.11;53.08;102331.78;4952705;29;20115;-44
2023/05/31 09:44:08;;;;;;;13.38;5.22;;;;;;;20.10;52.98;102332.16;4951351;29;20058;-48
2023/05/31 09:46:34;;;;;;;12.63;5.65;;;;;;;19.64;53.34;102340.47;4953353;28;20054;-44
2023/05/31 09:49:06;;;;;;;15.93;5.50;;;;;;;19.49;53.89;102330.06;4953450;29;20051;-43
2023/05/31 09:51:34;;;;;;;9.85;4.75;;;;;;;19.36;53.70;102326.56;4953257;29;20089;-44
2023/05/31 09:54:07;;;;;;;12.38;4.68;;;;;;;19.20;54.42;102322.16;4952366;29;20039;-44
2023/05/31 09:56:38;;;;;;;15.27;5.28;;;;;;;19.91;53.95;102322.56;4951087;29;20071;-44
2023/05/31 09:59:06;;;;;;;10.68;4.10;;;;;;;20.45;52.47;102330.06;4935435;29;20054;-43
2023/05/31 10:01:33;;;;;;;10.35;4.50;;;;;;;20.25;52.48;102325.66;4952707;28;20052;-51
2023/05/31 10:04:04;;;;;;;8.80;4.80;;;;;;;19.87;53.00;102329.28;4953097;29;20043;-43
2023/05/31 10:06:34;;;;;;;16.20;4.38;;;;;;;19.74;52.91;102325.81;4952234;29;20051;-45
2023/05/31 10:09:03;;;;;;;12.80;5.57;;;;;;;19.46;53.41;102330.03;4952635;29;20043;-45
2023/05/31 10:11:37;;;;;;;8.80;3.88;;;;;;;19.09;53.73;102323.91;4952710;29;20055;-44
2023/05/31 10:14:12;;;;;;;13.88;4.97;;;;;;;18.91;54.49;102320.66;4951983;29;20516;-44
2023/05/31 10:16:46;;;;;;;18.30;6.03;;;;;;;18.92;54.67;102316.69;4951921;29;20744;-44
2023/05/31 10:19:24;;;;;;;7.07;3.85;;;;;;;18.62;54.37;102319.16;4947629;28;20051;-46
2023/05/31 10:21:52;;;;;;;6.75;4.20;;;;;;;18.42;55.00;102319.38;4952609;29;20048;-45
2023/05/31 10:24:42;;;;;;;9.30;4.30;;;;;;;18.16;55.60;102322.69;4952656;29;20404;-43
2023/05/31 10:27:19;;;;;;;10.38;4.57;;;;;;;18.08;55.56;102318.84;4950369;29;20498;-44
2023/05/31 10:29:53;;;;;;;13.13;3.88;;;;;;;17.84;55.79;102323.78;4952538;28;20151;-44
2023/05/31 10:32:25;;;;;;;6.78;3.72;;;;;;;17.84;56.08;102323.78;4951779;29;20047;-45
2023/05/31 10:34:52;;;;;;;10.35;3.55;;;;;;;17.83;56.17;102319.34;4952050;29;20039;-44
2023/05/31 10:37:21;;;;;;;8.23;4.20;;;;;;;17.81;56.21;102327.28;4947142;29;20043;-43
2023/05/31 10:40:12;;;;;;;10.70;3.75;;;;;;;17.94;56.32;102312.06;4940470;28;20209;-44
2023/05/31 10:42:44;;;;;;;6.43;3.40;;;;;;;17.96;56.23;102316.13;4946717;28;20055;-44
2023/05/31 10:45:25;;;;;;;4.85;3.15;;;;;;;18.03;56.29;102321.13;4946890;29;20084;-47
2023/05/31 10:48:03;;;;;;;12.55;3.97;;;;;;;18.06;56.42;102326.00;4942154;28;20053;-45
2023/05/31 10:50:30;;;;;;;8.38;4.10;;;;;;;18.08;56.53;102329.28;4945081;28;20039;-45
2023/05/31 10:53:11;;;;;;;5.97;3.35;;;;;;;17.92;56.51;102329.25;4947265;29;20050;-45
2023/05/31 10:55:43;;;;;;;6.20;3.17;;;;;;;17.94;56.67;102328.88;4951363;28;20584;-43
2023/05/31 10:58:39;;;;;;;8.50;3.28;;;;;;;17.89;56.40;102335.56;4947717;28;20047;-46
2023/05/31 11:01:11;;;;;;;7.25;3.53;;;;;;;17.79;56.57;102338.03;4942709;29;20047;-50
2023/05/31 11:03:51;;;;;;;10.32;3.75;;;;;;;17.89;56.59;102332.75;4946054;28;20441;-46
2023/05/31 11:06:28;;;;;;;6.55;2.90;;;;;;;17.80;56.65;102329.28;4941334;29;20045;-44
2023/05/31 11:09:08;;;;;;;8.00;3.47;;;;;;;17.81;57.03;102338.50;4946639;29;20095;-48
2023/05/31 11:11:41;;;;;;;4.38;2.78;;;;;;;17.66;57.16;102330.84;4947982;29;20129;-44
2023/05/31 11:14:10;;;;;;;6.60;4.13;;;;;;;17.43;57.64;102331.34;4948929;29;20043;-44
2023/05/31 11:17:04;;;;;;;10.80;3.85;;;;;;;17.42;57.81;102329.69;4949707;29;20040;-45
2023/05/31 11:19:33;;;;;;;10.98;5.40;;;;;;;17.39;57.85;102338.81;4949123;28;20035;-45
2023/05/31 11:22:09;;;;;;;10.05;3.55;;;;;;;17.32;57.81;102329.38;4948714;28;20051;-48
2023/05/31 11:24:50;;;;;;;7.55;3.30;;;;;;;17.19;58.24;102333.34;4945703;28;20367;-49
2023/05/31 11:27:19;;;;;;;20.08;4.25;;;;;;;17.18;58.52;102323.34;4945930;29;20043;-43
2023/05/31 11:29:50;;;;;;;13.95;5.03;;;;;;;17.17;58.54;102324.50;4951267;29;20051;-47